Terminal Aerodrome Forecast
Issued by NWS

Home | Current Version | Previous Version | Graphics & Text | Print | Product List | Glossary On
Versions: 1 2 3 4 5 6 7 8 9 10 11 12 13 14
000
FTUS43 KMPX 241120
TAFRWF
TAF
KRWF 241120Z 2412/2512 36008KT 2SM -RA BR OVC005
      TEMPO 2412/2415 1SM BR OVC003
     FM241500 01010KT 4SM BR OVC007
     FM241900 01012KT P6SM BKN015
     FM250000 03008KT P6SM OVC015=

USA.gov is the U.S. government's official web portal to all federal, state and local government web resources and services.